Time;durP1;ratioP1;P1;durP2;ratioP2;P2;SDS_P1;SDS_P2;PMS_P1;PMS_P2;Temp;Humidity;BMP_temperature;BMP_pressure;BME280_temperature;BME280_humidity;BME280_pressure;Samples;Min_cycle;Max_cycle;Signal;HPM_P1;HPM_P2
2021/11/16 00:00:50;;;;;;;7.55;4.57;;;;;;;6.24;66.40;96453.72;5046082;28;20106;-74
2021/11/16 00:03:15;;;;;;;7.85;4.60;;;;;;;6.20;67.21;96452.25;5044519;28;20040;-74
2021/11/16 00:05:41;;;;;;;6.75;4.47;;;;;;;6.04;66.81;96456.13;5044903;28;20538;-73
2021/11/16 00:08:07;;;;;;;7.22;4.95;;;;;;;6.11;67.02;96456.53;5044607;28;20021;-74
2021/11/16 00:10:33;;;;;;;9.73;5.55;;;;;;;6.14;66.75;96450.94;5042795;28;20033;-72
2021/11/16 00:12:58;;;;;;;8.02;5.20;;;;;;;6.22;66.93;96459.19;5045233;28;20111;-73
2021/11/16 00:15:24;;;;;;;7.25;4.85;;;;;;;6.25;66.38;96461.59;5042776;28;20032;-73
2021/11/16 00:17:49;;;;;;;9.45;5.38;;;;;;;6.32;66.52;96463.75;5045864;28;20219;-73
2021/11/16 00:20:16;;;;;;;7.78;5.60;;;;;;;6.35;66.25;96458.16;5042806;28;20435;-73
2021/11/16 00:22:41;;;;;;;9.05;5.53;;;;;;;6.32;66.20;96455.75;5045263;28;20031;-73
2021/11/16 00:27:39;;;;;;;9.30;5.95;;;;;;;6.26;65.97;96455.28;5044358;28;20033;-75
2021/11/16 00:30:06;;;;;;;8.00;5.40;;;;;;;6.23;66.64;96458.19;5044433;28;20044;-73
2021/11/16 00:32:31;;;;;;;7.65;5.30;;;;;;;6.25;66.14;96466.91;5039856;28;20462;-74
2021/11/16 00:34:57;;;;;;;9.77;5.72;;;;;;;6.26;66.35;96457.94;5033147;28;20033;-74
2021/11/16 00:37:28;;;;;;;8.57;5.18;;;;;;;6.28;66.58;96453.34;5033611;28;20104;-73
2021/11/16 00:39:54;;;;;;;9.32;5.47;;;;;;;6.29;66.41;96460.34;5039930;28;20553;-74
2021/11/16 00:42:19;;;;;;;10.73;5.38;;;;;;;6.29;66.32;96464.81;5041308;28;20080;-73
2021/11/16 00:44:45;;;;;;;7.80;5.60;;;;;;;6.25;66.56;96458.94;5038543;28;20036;-73
2021/11/16 00:47:10;;;;;;;7.90;4.80;;;;;;;6.24;66.11;96457.22;5044595;28;20029;-73
2021/11/16 00:49:36;;;;;;;9.55;5.53;;;;;;;6.22;66.79;96463.66;5043111;28;20032;-73
2021/11/16 00:52:02;;;;;;;8.98;5.53;;;;;;;6.12;66.68;96452.88;5048029;28;20036;-75
2021/11/16 00:54:28;;;;;;;10.70;5.80;;;;;;;6.16;66.93;96455.19;5038261;28;20500;-73
2021/11/16 00:56:53;;;;;;;9.63;5.53;;;;;;;6.18;66.39;96452.38;5045564;28;20036;-73
2021/11/16 00:59:18;;;;;;;9.65;5.20;;;;;;;6.16;66.87;96449.00;5044961;28;20483;-73
2021/11/16 01:01:45;;;;;;;9.43;5.93;;;;;;;6.19;66.73;96454.06;5043042;28;20512;-73
2021/11/16 01:04:12;;;;;;;8.00;5.22;;;;;;;6.15;66.36;96449.97;5048678;28;20053;-73
2021/11/16 01:06:38;;;;;;;9.60;5.70;;;;;;;6.14;66.59;96454.44;5046184;28;20044;-73
2021/11/16 01:09:03;;;;;;;9.82;5.68;;;;;;;6.11;66.27;96456.53;5047632;28;20467;-73
2021/11/16 01:11:29;;;;;;;8.18;5.47;;;;;;;6.15;66.59;96457.97;5047144;28;20091;-73
2021/11/16 01:13:54;;;;;;;9.98;6.00;;;;;;;6.09;66.48;96459.31;5048499;28;20029;-72
2021/11/16 01:16:20;;;;;;;10.25;6.07;;;;;;;6.17;66.82;96451.53;5046845;28;20032;-73
2021/11/16 01:18:45;;;;;;;10.00;5.97;;;;;;;6.04;67.29;96449.03;5047448;28;20040;-72
2021/11/16 01:21:10;;;;;;;10.07;5.80;;;;;;;6.12;66.50;96458.22;5047620;28;20484;-74
2021/11/16 01:23:36;;;;;;;9.55;6.00;;;;;;;6.15;66.33;96455.31;5047437;28;20480;-74
2021/11/16 01:26:02;;;;;;;10.30;6.63;;;;;;;6.16;66.37;96454.31;5048323;28;20024;-74
2021/11/16 01:28:28;;;;;;;11.18;6.53;;;;;;;6.21;66.14;96457.47;5045815;28;20040;-73
2021/11/16 01:30:57;;;;;;;11.88;6.07;;;;;;;6.16;66.30;96459.66;5047783;28;20049;-73
2021/11/16 01:33:30;;;;;;;9.93;6.90;;;;;;;6.24;66.12;96459.88;5046416;28;20029;-74
2021/11/16 01:35:55;;;;;;;;;;;;;;;6.28;65.46;96456.00;5048622;28;20031;-74
2021/11/16 01:38:23;;;;;;;11.57;6.22;;;;;;;6.28;65.25;96458.69;5046352;28;20306;-73
2021/11/16 01:40:49;;;;;;;10.13;6.72;;;;;;;6.28;65.29;96457.81;5047829;28;20039;-72
2021/11/16 01:43:15;;;;;;;11.05;6.88;;;;;;;6.27;65.86;96456.97;5047107;28;20530;-72
2021/11/16 01:45:41;;;;;;;10.00;6.70;;;;;;;6.32;66.25;96455.75;5045542;28;20037;-72
2021/11/16 01:48:07;;;;;;;9.90;7.35;;;;;;;6.27;65.78;96461.47;5046995;28;20108;-73
2021/11/16 01:50:33;;;;;;;12.10;7.60;;;;;;;6.34;65.72;96453.78;5046216;28;20543;-73
2021/11/16 01:52:58;;;;;;;10.73;6.75;;;;;;;6.36;65.74;96451.84;5047698;28;20094;-72
2021/11/16 01:55:24;;;;;;;11.43;7.55;;;;;;;6.38;66.30;96461.44;5046544;28;20032;-73
2021/11/16 01:57:50;;;;;;;11.30;6.88;;;;;;;6.44;65.77;96457.41;5046302;28;20075;-73
2021/11/16 02:00:19;;;;;;;10.70;7.50;;;;;;;6.36;66.31;96455.38;5046164;28;20036;-74
2021/11/16 02:02:44;;;;;;;9.48;6.72;;;;;;;6.34;66.95;96451.13;5045362;28;20027;-72
2021/11/16 02:05:10;;;;;;;12.25;7.30;;;;;;;6.27;66.74;96446.31;5044093;28;20525;-72
2021/11/16 02:07:35;;;;;;;11.50;7.47;;;;;;;6.29;67.01;96448.84;5042173;28;20068;-72
2021/11/16 02:10:00;;;;;;;11.73;7.15;;;;;;;6.26;67.56;96447.28;5042886;28;20408;-75
2021/11/16 02:12:26;;;;;;;11.35;7.53;;;;;;;6.22;67.81;96442.34;5037268;28;20500;-71
2021/11/16 02:14:52;;;;;;;11.77;7.30;;;;;;;6.18;68.31;96447.06;5047692;28;20028;-73
2021/11/16 02:17:17;;;;;;;10.32;6.85;;;;;;;6.15;68.23;96439.31;5046259;28;20037;-73
2021/11/16 02:19:43;;;;;;;13.35;6.95;;;;;;;6.10;67.93;96439.69;5044767;28;20029;-73
2021/11/16 02:22:09;;;;;;;11.30;7.47;;;;;;;6.09;69.13;96438.00;5045833;28;20021;-72
2021/11/16 02:24:34;;;;;;;12.45;7.50;;;;;;;5.98;68.78;96428.16;5044388;28;20250;-74
2021/11/16 02:27:00;;;;;;;11.90;7.45;;;;;;;5.97;69.46;96431.81;5045978;28;20021;-73
2021/11/16 02:29:25;;;;;;;14.23;7.82;;;;;;;5.84;70.04;96434.59;5039751;28;20411;-73
2021/11/16 02:31:52;;;;;;;13.20;7.78;;;;;;;5.87;68.96;96439.69;5035805;28;20025;-72
2021/11/16 02:34:18;;;;;;;12.18;7.63;;;;;;;5.92;69.33;96431.31;5040504;28;20116;-72
2021/11/16 02:36:44;;;;;;;10.77;7.07;;;;;;;5.88;69.53;96429.88;5047047;28;20055;-74
2021/11/16 02:39:10;;;;;;;14.05;8.45;;;;;;;5.86;69.69;96418.50;5043612;28;20029;-73
2021/11/16 02:41:35;;;;;;;12.50;7.30;;;;;;;5.73;69.54;96424.81;5045150;28;20033;-73
2021/11/16 02:44:04;;;;;;;10.40;6.93;;;;;;;5.74;69.96;96423.84;5057680;28;20044;-73
2021/11/16 02:46:30;;;;;;;12.63;7.25;;;;;;;5.71;69.99;96418.75;5045256;28;20032;-72
2021/11/16 02:48:56;;;;;;;11.98;7.38;;;;;;;5.64;70.48;96420.22;5037469;28;20056;-74
2021/11/16 02:51:21;;;;;;;11.30;6.97;;;;;;;5.62;70.13;96416.84;5032101;28;20455;-73
2021/11/16 02:53:47;;;;;;;11.25;6.82;;;;;;;5.62;70.04;96422.16;5034130;28;20044;-73
2021/11/16 02:56:12;;;;;;;13.65;7.30;;;;;;;5.62;70.38;96424.81;5033589;28;20030;-72
2021/11/16 02:58:38;;;;;;;10.30;6.63;;;;;;;5.60;70.09;96422.28;5033486;28;20086;-73
2021/11/16 03:01:07;;;;;;;11.95;6.53;;;;;;;5.58;70.11;96413.56;5034386;28;20104;-73
2021/11/16 03:03:35;;;;;;;14.27;7.45;;;;;;;5.52;70.30;96422.03;5033725;28;20026;-73
2021/11/16 03:06:01;;;;;;;11.25;5.93;;;;;;;5.52;70.07;96422.91;5032630;28;20025;-73
2021/11/16 03:08:27;;;;;;;10.70;6.57;;;;;;;5.54;70.63;96426.28;5033262;28;20021;-74
2021/11/16 03:11:00;;;;;;;9.20;5.82;;;;;;;5.52;69.75;96425.56;5035056;28;20109;-73
2021/11/16 03:13:28;;;;;;;11.82;6.80;;;;;;;5.48;70.88;96423.25;5027689;28;20456;-73
2021/11/16 03:15:53;;;;;;;11.18;6.60;;;;;;;5.52;70.32;96435.34;5043451;28;20132;-72
2021/11/16 03:18:19;;;;;;;10.70;6.72;;;;;;;5.53;70.11;96429.06;5045934;28;20021;-73
2021/11/16 03:20:44;;;;;;;11.15;6.20;;;;;;;5.55;70.06;96422.66;5045071;28;20024;-73
2021/11/16 03:23:16;;;;;;;9.32;5.85;;;;;;;5.52;70.15;96420.22;5045631;28;20048;-73
2021/11/16 03:25:47;;;;;;;8.15;5.80;;;;;;;5.53;69.97;96423.75;5036180;28;20104;-72
2021/11/16 03:28:16;;;;;;;12.30;6.55;;;;;;;5.48;69.92;96424.09;5038096;28;20063;-74
2021/11/16 03:30:43;;;;;;;12.20;6.38;;;;;;;5.56;70.20;96420.84;5034728;28;20033;-73
2021/11/16 03:33:09;;;;;;;10.25;6.20;;;;;;;5.60;69.41;96418.78;5043108;28;20072;-74
2021/11/16 03:35:35;;;;;;;11.27;6.68;;;;;;;5.52;70.18;96425.56;5044743;28;20075;-73
2021/11/16 03:38:01;;;;;;;10.82;6.10;;;;;;;5.55;69.89;96420.00;5044391;28;20055;-73
2021/11/16 03:40:27;;;;;;;10.75;7.00;;;;;;;5.54;69.11;96426.28;5045847;28;20037;-75
2021/11/16 03:42:54;;;;;;;10.38;6.68;;;;;;;5.56;70.12;96421.66;5043106;28;20045;-73
2021/11/16 03:45:22;;;;;;;9.50;6.03;;;;;;;5.58;69.80;96426.88;5044671;28;20037;-74
2021/11/16 03:47:48;;;;;;;11.80;6.47;;;;;;;5.47;69.73;96422.41;5043227;28;20071;-74
2021/11/16 03:50:16;;;;;;;10.15;6.60;;;;;;;5.55;68.90;96430.63;5046261;28;20049;-73
2021/11/16 03:52:43;;;;;;;9.48;6.18;;;;;;;5.54;69.82;96434.28;5042567;28;20052;-74
2021/11/16 03:55:12;;;;;;;12.27;7.15;;;;;;;5.57;69.72;96434.03;5044428;28;20064;-73
2021/11/16 03:57:39;;;;;;;12.73;6.55;;;;;;;5.59;69.36;96435.72;5042970;28;20035;-73
2021/11/16 04:00:13;;;;;;;9.43;6.28;;;;;;;5.54;69.67;96434.28;5036345;28;20449;-73
2021/11/16 04:02:39;;;;;;;9.68;6.22;;;;;;;5.51;69.51;96429.19;5036735;28;20047;-73
2021/11/16 04:05:05;;;;;;;10.57;6.20;;;;;;;5.55;69.27;96424.47;5043284;28;20108;-73
2021/11/16 04:07:31;;;;;;;10.93;6.32;;;;;;;5.53;69.29;96426.41;5038400;28;20025;-73
2021/11/16 04:09:57;;;;;;;9.77;6.75;;;;;;;5.50;69.52;96422.16;5033866;28;20029;-73
2021/11/16 04:12:22;;;;;;;10.57;6.75;;;;;;;5.53;68.99;96421.91;5031778;28;20033;-73
2021/11/16 04:14:48;;;;;;;10.55;6.35;;;;;;;5.53;69.17;96421.91;5038627;28;20029;-73
2021/11/16 04:17:13;;;;;;;10.35;6.50;;;;;;;5.55;68.99;96427.97;5044164;28;20028;-73
2021/11/16 04:19:39;;;;;;;11.38;6.47;;;;;;;5.53;69.92;96427.25;5045531;28;20179;-73
2021/11/16 04:22:05;;;;;;;12.10;6.53;;;;;;;5.52;69.72;96420.22;5042298;28;20032;-73
2021/11/16 04:24:30;;;;;;;11.50;6.60;;;;;;;5.56;69.31;96431.50;5043922;28;20545;-73
2021/11/16 04:26:56;;;;;;;12.18;7.20;;;;;;;5.46;69.53;96428.69;5046603;28;20021;-74
2021/11/16 04:29:21;;;;;;;14.13;6.90;;;;;;;5.54;68.72;96434.28;5048257;28;20025;-72
2021/11/16 04:31:47;;;;;;;10.70;6.10;;;;;;;5.59;69.11;96425.94;5049304;28;20028;-74
2021/11/16 04:34:13;;;;;;;12.57;7.07;;;;;;;5.55;68.08;96429.78;5046861;28;20032;-72
2021/11/16 04:36:38;;;;;;;12.27;7.15;;;;;;;5.55;68.87;96429.78;5049392;28;20412;-76
2021/11/16 04:39:05;;;;;;;9.18;6.20;;;;;;;5.53;69.02;96424.56;5046197;28;20404;-73
2021/11/16 04:41:30;;;;;;;11.18;6.88;;;;;;;5.57;69.31;96426.06;5048320;28;20029;-74
2021/11/16 04:43:58;;;;;;;11.30;7.40;;;;;;;5.56;68.64;96419.00;5047422;28;20041;-74
2021/11/16 04:46:25;;;;;;;11.80;6.35;;;;;;;5.61;68.40;96429.28;5049074;28;20036;-74
2021/11/16 04:59:43;;;;;;;11.07;6.60;;;;;;;5.69;68.46;96428.72;5048691;28;20599;-75
2021/11/16 05:04:53;;;;;;;10.52;6.72;;;;;;;5.75;68.17;96432.69;5046609;28;20039;-74
2021/11/16 05:07:20;;;;;;;13.13;6.95;;;;;;;5.77;67.76;96431.59;5047436;28;20029;-74
2021/11/16 05:09:53;;;;;;;10.25;6.70;;;;;;;5.68;67.85;96421.66;5046747;28;20151;-73
2021/11/16 05:12:18;;;;;;;11.55;7.13;;;;;;;5.72;67.80;96433.78;5048535;28;20025;-74
2021/11/16 05:14:44;;;;;;;13.38;6.65;;;;;;;5.79;68.54;96429.66;5045859;28;20033;-74
2021/11/16 05:17:09;;;;;;;11.60;7.40;;;;;;;5.81;68.63;96435.72;5046307;28;20032;-72
2021/11/16 05:19:35;;;;;;;12.68;7.15;;;;;;;5.87;68.51;96437.03;5046946;28;20032;-74
2021/11/16 05:22:01;;;;;;;11.98;8.02;;;;;;;5.88;67.82;96440.53;5046638;28;20070;-75
2021/11/16 05:24:26;;;;;;;10.73;7.25;;;;;;;5.95;67.38;96436.41;5047063;28;20040;-75
2021/11/16 05:26:52;;;;;;;13.23;7.95;;;;;;;5.95;67.40;96436.41;5047087;28;20481;-73
2021/11/16 05:29:18;;;;;;;14.02;6.97;;;;;;;5.95;67.43;96433.75;5047746;28;20029;-74
2021/11/16 05:31:43;;;;;;;10.70;7.18;;;;;;;5.93;67.80;96433.03;5047415;28;20083;-74
2021/11/16 05:34:09;;;;;;;12.85;7.15;;;;;;;6.00;67.44;96433.38;5047730;28;20032;-73
2021/11/16 05:36:34;;;;;;;11.98;6.65;;;;;;;5.99;66.46;96437.88;5048941;28;20104;-74
2021/11/16 05:39:00;;;;;;;11.20;7.18;;;;;;;6.01;66.98;96430.59;5047850;28;20021;-74
2021/11/16 05:41:25;;;;;;;13.27;7.00;;;;;;;6.03;66.77;96443.81;5049137;28;20454;-76
2021/11/16 05:43:51;;;;;;;11.68;6.63;;;;;;;5.99;66.55;96429.03;5046001;28;20048;-74
2021/11/16 05:46:20;;;;;;;10.13;6.57;;;;;;;5.94;67.16;96450.69;5047920;28;20033;-73
2021/11/16 05:48:47;;;;;;;12.95;7.15;;;;;;;5.96;67.54;96451.44;5047413;28;20029;-73
2021/11/16 05:51:12;;;;;;;11.00;6.63;;;;;;;6.00;67.32;96450.19;5049082;28;20200;-76
2021/11/16 05:53:40;;;;;;;11.30;6.80;;;;;;;5.98;67.30;96456.63;5048182;28;20514;-74
2021/11/16 05:56:06;;;;;;;10.48;6.65;;;;;;;6.02;66.98;96458.94;5047816;28;20381;-74
2021/11/16 05:58:31;;;;;;;12.25;6.70;;;;;;;6.09;66.56;96458.47;5047637;28;20021;-74
2021/11/16 06:00:57;;;;;;;10.13;5.93;;;;;;;6.14;66.84;96456.28;5045630;28;20028;-74
2021/11/16 06:03:22;;;;;;;11.38;6.63;;;;;;;6.09;66.91;96447.81;5049458;28;20032;-73
2021/11/16 06:05:48;;;;;;;13.02;6.90;;;;;;;6.06;66.94;96464.91;5048345;28;20025;-75
2021/11/16 06:08:39;;;;;;;9.07;6.15;;;;;;;6.11;66.95;96460.03;5049558;28;20071;-73
2021/11/16 06:11:05;;;;;;;9.98;6.25;;;;;;;6.20;66.27;96460.25;5048290;28;20048;-74
2021/11/16 06:13:31;;;;;;;14.93;6.82;;;;;;;6.24;66.29;96462.53;5048133;28;20431;-74
2021/11/16 06:15:56;;;;;;;11.90;7.32;;;;;;;6.24;65.97;96467.03;5046130;28;20090;-76
2021/11/16 06:18:22;;;;;;;8.95;5.88;;;;;;;6.24;65.95;96465.22;5029198;28;20033;-72
2021/11/16 06:20:47;;;;;;;10.43;6.45;;;;;;;6.20;66.37;96461.09;5048524;28;20029;-74
2021/11/16 06:23:13;;;;;;;8.70;5.82;;;;;;;6.23;66.51;96468.84;5045945;28;20057;-75
2021/11/16 06:25:39;;;;;;;8.77;6.00;;;;;;;6.23;65.82;96471.50;5047501;28;20021;-73
2021/11/16 06:28:05;;;;;;;13.15;6.40;;;;;;;6.15;66.19;96471.28;5045474;28;20029;-74
2021/11/16 06:30:30;;;;;;;10.15;5.85;;;;;;;6.14;66.41;96467.75;5026564;28;20033;-74
2021/11/16 06:32:56;;;;;;;12.98;6.28;;;;;;;6.10;66.34;96462.81;5028235;28;20056;-75
2021/11/16 06:35:21;;;;;;;10.65;6.47;;;;;;;6.06;66.51;96459.56;5026586;28;20028;-77
2021/11/16 06:37:47;;;;;;;10.38;6.70;;;;;;;5.99;67.20;96472.50;5028788;28;20044;-74
2021/11/16 06:40:14;;;;;;;15.65;6.63;;;;;;;6.05;66.70;96476.50;5037337;28;20037;-74
2021/11/16 06:42:39;;;;;;;13.43;7.20;;;;;;;6.02;66.83;96472.25;5046252;28;20036;-73
2021/11/16 06:45:05;;;;;;;10.40;6.80;;;;;;;6.06;67.46;96475.53;5043350;28;20029;-75
2021/11/16 06:47:31;;;;;;;11.50;6.53;;;;;;;6.06;66.94;96471.03;5036538;28;20037;-74
2021/11/16 06:49:57;;;;;;;12.52;6.63;;;;;;;6.03;67.19;96470.44;5043618;28;20123;-74
2021/11/16 06:52:23;;;;;;;11.20;6.75;;;;;;;6.10;66.78;96460.16;5044030;28;20025;-75
2021/11/16 06:54:49;;;;;;;12.63;7.05;;;;;;;6.14;67.23;96465.09;5046190;28;20024;-76
2021/11/16 06:57:14;;;;;;;10.18;6.50;;;;;;;6.14;67.57;96462.44;5037347;28;20028;-75
2021/11/16 06:59:40;;;;;;;11.65;5.75;;;;;;;6.19;67.22;96467.38;5044233;28;20037;-75
2021/11/16 07:02:05;;;;;;;15.77;6.35;;;;;;;6.14;67.28;96469.59;5043708;28;20025;-76
2021/11/16 07:04:36;;;;;;;10.68;6.65;;;;;;;6.10;66.82;96476.13;5045180;28;20017;-77
2021/11/16 07:07:01;;;;;;;13.13;8.18;;;;;;;6.14;67.18;96472.25;5034490;28;20456;-75
2021/11/16 07:09:31;;;;;;;20.58;10.73;;;;;;;6.20;67.71;96471.75;5044850;28;20040;-76
2021/11/16 07:11:56;;;;;;;18.50;9.50;;;;;;;6.27;67.21;96472.13;5044999;28;20430;-76
2021/11/16 07:14:23;;;;;;;13.95;7.18;;;;;;;6.32;66.59;96477.06;5043083;28;20029;-75
2021/11/16 07:16:55;;;;;;;11.82;6.53;;;;;;;6.31;67.21;96486.88;5046560;28;20028;-75
2021/11/16 07:19:35;;;;;;;10.77;6.93;;;;;;;6.40;66.64;96490.63;5043165;28;20040;-77
2021/11/16 07:22:03;;;;;;;9.70;6.38;;;;;;;6.46;66.58;96487.47;5046651;28;20036;-75
2021/11/16 07:24:30;;;;;;;9.88;5.57;;;;;;;6.45;66.91;96488.41;5027732;28;20025;-77
2021/11/16 07:26:56;;;;;;;13.30;7.15;;;;;;;6.54;66.49;96489.50;5038686;28;20564;-77
2021/11/16 07:29:42;;;;;;;12.57;7.60;;;;;;;6.55;66.45;96475.19;5025517;28;20511;-76
2021/11/16 07:32:10;;;;;;;10.77;7.28;;;;;;;6.61;66.48;96492.50;5022854;28;20608;-76
2021/11/16 07:34:36;;;;;;;16.45;7.43;;;;;;;6.61;66.41;96495.16;5024691;28;20586;-76
2021/11/16 07:37:03;;;;;;;12.82;7.75;;;;;;;6.66;65.90;96495.63;5024383;28;20109;-77
2021/11/16 07:39:28;;;;;;;13.65;7.03;;;;;;;6.68;65.71;96489.22;5023769;28;20064;-78
2021/11/16 07:42:05;;;;;;;13.80;7.88;;;;;;;6.74;65.88;96485.19;4990640;28;20370;-74
2021/11/16 07:44:30;;;;;;;15.35;7.82;;;;;;;6.75;65.75;96478.88;5022763;28;20499;-75
2021/11/16 07:46:56;;;;;;;17.42;8.25;;;;;;;6.71;65.74;96490.75;5024359;28;20026;-74
2021/11/16 07:49:22;;;;;;;19.92;9.60;;;;;;;6.73;65.78;96493.28;5022609;28;20039;-75
2021/11/16 07:51:48;;;;;;;14.20;8.77;;;;;;;6.82;65.72;96489.03;5026287;28;20075;-75
2021/11/16 07:54:14;;;;;;;16.67;8.55;;;;;;;6.89;65.08;96487.53;5024447;28;20037;-76
2021/11/16 07:56:39;;;;;;;12.10;7.93;;;;;;;6.93;65.47;96494.31;5007786;28;20028;-76
2021/11/16 07:59:06;;;;;;;12.93;8.07;;;;;;;6.93;65.09;96492.50;5024226;28;20051;-75
2021/11/16 08:01:41;;;;;;;13.88;7.63;;;;;;;6.99;64.95;96484.97;5025027;28;20021;-76
2021/11/16 08:07:07;;;;;;;11.50;6.82;;;;;;;7.03;64.77;96489.03;5023129;28;20110;-76
2021/11/16 08:12:08;;;;;;;12.40;6.32;;;;;;;6.89;65.08;96483.06;5024538;28;20056;-76
2021/11/16 08:14:35;;;;;;;10.32;6.45;;;;;;;6.91;65.52;96491.78;5025427;28;20029;-74
2021/11/16 08:17:01;;;;;;;10.57;6.60;;;;;;;6.89;65.08;96487.53;5025587;28;20033;-76
2021/11/16 08:19:30;;;;;;;14.25;7.00;;;;;;;6.94;65.42;96480.00;5024829;28;20519;-75
2021/11/16 08:21:56;;;;;;;13.70;8.35;;;;;;;6.98;65.44;96486.75;5026759;28;20036;-75
2021/11/16 08:24:23;;;;;;;12.77;7.30;;;;;;;7.03;65.40;96481.91;5023789;28;20048;-76
2021/11/16 08:26:49;;;;;;;10.48;7.22;;;;;;;7.03;65.73;96475.72;5026475;28;20030;-74
2021/11/16 08:29:26;;;;;;;15.02;8.07;;;;;;;7.13;65.22;96475.78;5024294;28;20486;-76
2021/11/16 08:32:17;;;;;;;17.15;9.15;;;;;;;7.21;64.81;96481.31;5024018;28;20368;-76
2021/11/16 08:34:44;;;;;;;13.93;7.53;;;;;;;7.27;64.27;96480.81;5026400;28;20021;-75
2021/11/16 08:37:11;;;;;;;15.38;8.13;;;;;;;7.33;64.02;96489.25;5023624;28;20022;-76
2021/11/16 08:39:40;;;;;;;12.57;8.55;;;;;;;7.37;63.77;96486.19;5025169;28;20073;-74
2021/11/16 08:42:22;;;;;;;16.65;9.30;;;;;;;7.32;64.26;96477.72;5025022;28;20524;-75
2021/11/16 08:44:59;;;;;;;14.63;8.55;;;;;;;7.35;63.63;96482.81;5025280;28;20060;-76
2021/11/16 08:47:33;;;;;;;15.40;8.65;;;;;;;7.30;64.20;96479.72;5025471;28;20029;-74
2021/11/16 08:49:59;;;;;;;15.75;9.15;;;;;;;7.40;63.81;96480.59;5024580;28;20026;-75
2021/11/16 08:52:28;;;;;;;12.27;7.88;;;;;;;7.38;64.02;96477.22;5026565;28;20029;-76
2021/11/16 08:55:01;;;;;;;11.75;8.10;;;;;;;7.41;63.93;96478.78;5025073;28;20033;-76
2021/11/16 08:57:28;;;;;;;15.68;8.13;;;;;;;7.45;64.13;96482.88;5024826;28;20500;-74
2021/11/16 08:59:54;;;;;;;11.43;7.15;;;;;;;7.54;63.42;96481.25;5026241;28;20113;-75
2021/11/16 09:02:21;;;;;;;12.82;8.43;;;;;;;7.48;63.43;96487.13;5024798;28;20030;-73
2021/11/16 09:04:46;;;;;;;12.63;8.02;;;;;;;7.48;63.93;96479.13;5035540;28;20083;-74
2021/11/16 09:07:31;;;;;;;13.30;7.82;;;;;;;7.51;63.93;96477.00;5038484;28;20396;-73
2021/11/16 09:10:07;;;;;;;11.02;7.18;;;;;;;7.57;63.31;96477.47;5039376;28;20432;-75
2021/11/16 09:13:05;;;;;;;12.65;7.68;;;;;;;7.57;63.60;96482.81;5032665;28;20013;-75
2021/11/16 09:15:33;;;;;;;13.93;8.43;;;;;;;7.46;64.10;96473.91;5016108;28;20112;-75
2021/11/16 09:18:10;;;;;;;13.88;8.75;;;;;;;7.55;63.83;96469.59;5031368;28;20063;-74
2021/11/16 09:20:35;;;;;;;15.02;7.80;;;;;;;7.46;64.08;96465.03;5027901;28;20032;-76
2021/11/16 09:23:02;;;;;;;14.52;8.60;;;;;;;7.54;63.75;96459.91;5028217;28;20056;-75
2021/11/16 09:25:30;;;;;;;18.02;9.80;;;;;;;7.56;63.72;96465.09;5028230;28;20030;-75
2021/11/16 09:28:12;;;;;;;16.30;10.20;;;;;;;7.63;63.54;96471.59;5028422;28;20029;-75
2021/11/16 09:30:42;;;;;;;13.90;7.95;;;;;;;7.70;63.30;96464.75;5029671;28;20068;-79
2021/11/16 09:33:09;;;;;;;12.15;7.65;;;;;;;7.81;62.78;96465.63;5027364;28;20037;-78
2021/11/16 09:35:45;;;;;;;13.27;7.53;;;;;;;7.82;62.62;96456.66;5029401;28;20520;-75
2021/11/16 09:38:11;;;;;;;13.48;7.50;;;;;;;7.84;62.62;96454.66;5027950;28;20160;-78
2021/11/16 09:40:36;;;;;;;11.73;7.75;;;;;;;7.78;63.22;96450.72;5029141;28;20022;-76
2021/11/16 09:43:03;;;;;;;19.52;8.90;;;;;;;7.79;63.31;96449.72;5027246;28;20057;-74
2021/11/16 09:45:28;;;;;;;18.02;8.20;;;;;;;7.85;63.19;96451.03;5027909;28;20061;-75
2021/11/16 09:47:54;;;;;;;14.60;8.80;;;;;;;7.94;63.12;96441.34;5029055;28;20033;-75
2021/11/16 09:50:21;;;;;;;16.02;9.63;;;;;;;7.98;63.26;96438.28;5026126;28;20029;-76
2021/11/16 09:52:57;;;;;;;15.15;10.20;;;;;;;8.00;62.79;96435.47;5029497;28;20021;-76
2021/11/16 09:55:23;;;;;;;12.80;8.45;;;;;;;8.06;62.66;96432.25;5027479;28;20064;-76
2021/11/16 09:58:11;;;;;;;12.88;8.02;;;;;;;8.09;62.44;96441.84;5028926;28;20075;-74
2021/11/16 10:00:41;;;;;;;14.68;7.35;;;;;;;8.07;62.30;96423.28;5031467;28;20120;-76
2021/11/16 10:03:17;;;;;;;16.17;8.50;;;;;;;8.07;62.60;96420.59;5027165;28;20037;-75
2021/11/16 10:05:48;;;;;;;18.67;11.65;;;;;;;8.10;62.51;96422.13;5029342;28;20025;-74
2021/11/16 10:08:15;;;;;;;13.20;8.38;;;;;;;8.06;63.03;96415.38;5027039;28;20021;-76
2021/11/16 10:10:42;;;;;;;10.48;7.75;;;;;;;8.13;62.31;96406.69;5028799;28;20033;-76
2021/11/16 10:13:11;;;;;;;15.60;7.97;;;;;;;8.22;62.20;96406.84;5027706;28;20080;-75
2021/11/16 10:15:41;;;;;;;13.23;7.78;;;;;;;8.26;62.21;96402.91;5026376;28;20676;-76
2021/11/16 10:18:07;;;;;;;16.05;8.18;;;;;;;8.31;62.37;96406.00;5027292;28;20033;-76
2021/11/16 10:20:35;;;;;;;10.73;7.70;;;;;;;8.34;61.71;96403.06;5026791;28;20033;-75
2021/11/16 10:23:01;;;;;;;10.75;6.93;;;;;;;8.34;61.94;96396.84;5025998;28;20026;-75
2021/11/16 10:25:29;;;;;;;10.18;6.50;;;;;;;8.36;61.99;96397.56;5026881;28;20032;-74
2021/11/16 10:27:59;;;;;;;10.68;7.60;;;;;;;8.26;62.56;96393.06;5028388;28;20029;-75
2021/11/16 10:30:26;;;;;;;10.68;6.75;;;;;;;8.20;62.89;96388.28;5026059;28;20104;-76
2021/11/16 10:33:21;;;;;;;12.23;6.95;;;;;;;8.29;62.76;96376.75;5027641;28;20116;-74
2021/11/16 10:35:57;;;;;;;11.57;6.60;;;;;;;8.31;62.38;96375.75;5028397;28;20090;-75
2021/11/16 10:38:25;;;;;;;9.40;6.72;;;;;;;8.31;62.79;96376.59;5026659;28;20025;-78
2021/11/16 10:40:51;;;;;;;10.88;6.90;;;;;;;8.37;62.35;96380.53;5026828;28;20476;-76
2021/11/16 10:43:16;;;;;;;11.68;7.03;;;;;;;8.38;62.59;96376.91;5025349;28;20496;-77
2021/11/16 10:45:44;;;;;;;10.18;6.85;;;;;;;8.36;62.73;96370.84;5027564;28;20025;-76
2021/11/16 10:48:12;;;;;;;12.55;7.95;;;;;;;8.31;63.24;96373.06;5027754;28;20029;-76
2021/11/16 10:50:39;;;;;;;12.63;7.68;;;;;;;8.34;63.24;96372.78;5026271;28;20033;-76
2021/11/16 10:53:14;;;;;;;13.77;7.57;;;;;;;8.39;63.14;96368.75;5010598;28;20412;-75
2021/11/16 10:55:41;;;;;;;13.70;7.55;;;;;;;8.40;63.35;96358.88;5025964;28;20484;-75
2021/11/16 10:58:09;;;;;;;14.50;6.95;;;;;;;8.42;63.31;96359.56;5028060;28;20022;-74
2021/11/16 11:00:56;;;;;;;11.93;6.47;;;;;;;8.44;63.53;96351.41;5026777;28;20029;-76
2021/11/16 11:03:28;;;;;;;8.05;6.05;;;;;;;8.45;63.65;96350.47;5026178;28;20083;-75
2021/11/16 11:05:59;;;;;;;11.40;6.57;;;;;;;8.43;63.74;96358.59;5028101;28;20052;-75
2021/11/16 11:08:48;;;;;;;12.50;6.70;;;;;;;8.41;64.32;96345.34;5025860;28;20025;-76
2021/11/16 11:11:14;;;;;;;9.52;6.80;;;;;;;8.40;64.04;96348.19;5029264;28;20069;-74
2021/11/16 11:13:39;;;;;;;12.55;6.47;;;;;;;8.39;64.44;96359.88;5026883;28;20439;-75
2021/11/16 11:16:10;;;;;;;11.48;6.78;;;;;;;8.28;64.81;96350.16;5026674;28;20084;-75
2021/11/16 11:18:39;;;;;;;11.82;7.20;;;;;;;8.27;65.25;96349.31;5027487;28;20112;-75
2021/11/16 11:21:10;;;;;;;11.55;8.10;;;;;;;8.18;66.01;96351.97;5025782;28;20021;-76
2021/11/16 11:23:45;;;;;;;11.07;7.53;;;;;;;8.20;65.97;96342.84;5027522;28;20040;-76
2021/11/16 11:26:50;;;;;;;10.10;7.15;;;;;;;8.23;65.94;96347.91;5025729;28;20472;-78
2021/11/16 11:29:36;;;;;;;10.50;6.07;;;;;;;8.22;64.26;96340.03;5026257;28;20052;-75
2021/11/16 11:32:12;;;;;;;9.50;5.68;;;;;;;8.18;63.79;96339.47;5027579;28;20101;-76
2021/11/16 11:34:38;;;;;;;10.20;6.10;;;;;;;8.19;63.87;96333.13;5024931;28;20095;-76
2021/11/16 11:37:06;;;;;;;8.60;5.93;;;;;;;8.19;63.62;96341.13;5027243;28;20029;-75
2021/11/16 11:39:32;;;;;;;12.32;6.20;;;;;;;8.24;62.85;96333.56;5024647;28;20120;-75
2021/11/16 11:41:58;;;;;;;8.52;5.15;;;;;;;8.25;62.59;96345.91;5026047;28;20026;-75
2021/11/16 11:44:24;;;;;;;7.45;4.50;;;;;;;8.21;62.67;96341.84;5026796;28;20021;-75
2021/11/16 11:46:57;;;;;;;9.68;4.68;;;;;;;8.20;62.61;96336.66;5025491;28;20478;-75
2021/11/16 11:49:22;;;;;;;;;;;;;;;8.13;63.08;96344.38;5028098;28;20060;-75
2021/11/16 11:51:48;;;;;;;7.60;4.95;;;;;;;8.06;63.67;96335.25;5025265;28;19954;-75
2021/11/16 11:54:14;;;;;;;9.30;5.72;;;;;;;8.03;64.03;96336.34;5025903;28;20040;-75
2021/11/16 11:56:39;;;;;;;8.70;4.93;;;;;;;8.02;64.28;96343.53;5024148;28;20026;-76
2021/11/16 11:59:05;;;;;;;13.93;4.85;;;;;;;7.96;64.77;96337.88;5025443;28;20045;-77
2021/11/16 12:01:30;;;;;;;8.30;4.90;;;;;;;7.98;64.64;96342.09;5026609;28;20101;-75